Time;durP1;ratioP1;P1;durP2;ratioP2;P2;SDS_P1;SDS_P2;PMS_P1;PMS_P2;Temp;Humidity;BMP_temperature;BMP_pressure;BME280_temperature;BME280_humidity;BME280_pressure;Samples;Min_cycle;Max_cycle;Signal;HPM_P1;HPM_P2
2021/09/14 00:00:00;;;;;;;;;;;;;;;18.23;100.00;99090.16;5100565;28;19938;-61
2021/09/14 00:02:25;;;;;;;;;;;;;;;18.01;100.00;99097.63;5101563;28;19920;-61
2021/09/14 00:04:51;;;;;;;;;;;;;;;17.69;100.00;99089.94;5097129;28;20425;-61
2021/09/14 00:07:16;;;;;;;;;;;;;;;18.11;100.00;99089.16;5103961;28;19924;-61
2021/09/14 00:09:41;;;;;;;;;;;;;;;18.08;100.00;99083.28;5097868;28;19920;-61
2021/09/14 00:12:07;;;;;;;;;;;;;;;18.32;100.00;99086.97;5097198;28;19920;-61
2021/09/14 00:14:32;;;;;;;;;;;;;;;18.03;100.00;99091.38;5089432;28;19922;-59
2021/09/14 00:16:58;;;;;;;;;;;;;;;18.41;100.00;99089.94;5100735;28;19920;-63
2021/09/14 00:19:23;;;;;;;;;;;;;;;18.44;100.00;99084.53;5096778;28;19924;-59
2021/09/14 00:21:48;;;;;;;;;;;;;;;18.04;100.00;99081.78;5097409;28;19920;-61
2021/09/14 00:24:14;;;;;;;;;;;;;;;18.14;100.00;99082.91;5104067;28;20258;-60
2021/09/14 00:26:39;;;;;;;;;;;;;;;18.15;100.00;99075.00;5101447;28;20411;-61
2021/09/14 00:29:04;;;;;;;;;;;;;;;18.48;100.00;99079.03;5098182;28;19916;-60
2021/09/14 00:31:30;;;;;;;;;;;;;;;18.26;100.00;99076.91;5100852;28;19911;-61
2021/09/14 00:33:55;;;;;;;;;;;;;;;18.57;100.00;99075.84;5079499;28;20450;-61
2021/09/14 00:36:21;;;;;;;;;;;;;;;18.58;100.00;99074.06;5099491;28;20007;-61
2021/09/14 00:38:46;;;;;;;;;;;;;;;18.61;100.00;99071.28;5105140;28;19964;-62
2021/09/14 00:41:11;;;;;;;;;;;;;;;18.38;100.00;99070.09;5078980;28;19916;-60
2021/09/14 00:43:37;;;;;;;;;;;;;;;18.42;100.00;99062.94;5098135;28;19920;-63
2021/09/14 00:46:02;;;;;;;;;;;;;;;18.25;100.00;99058.78;5102108;28;19915;-61
2021/09/14 00:48:27;;;;;;;;;;;;;;;18.17;100.00;99051.44;5104282;28;20385;-61
2021/09/14 00:50:53;;;;;;;;;;;;;;;17.95;100.00;99052.78;5099857;28;20002;-62
2021/09/14 00:53:19;;;;;;;;;;;;;;;17.64;100.00;99052.94;5095524;28;19918;-59
2021/09/14 00:55:44;;;;;;;;;;;;;;;17.30;100.00;99045.34;5082458;28;19923;-61
2021/09/14 00:58:10;;;;;;;;;;;;;;;17.41;100.00;99044.72;5102694;28;19916;-61
2021/09/14 01:00:35;;;;;;;;;;;;;;;17.54;100.00;99040.47;5107909;28;20357;-61
2021/09/14 01:03:01;;;;;;;;;;;;;;;17.50;100.00;99041.56;5099289;28;20010;-61
2021/09/14 01:05:26;;;;;;;;;;;;;;;17.14;100.00;99040.19;5102159;28;19924;-59
2021/09/14 01:07:51;;;;;;;;;;;;;;;17.30;100.00;99036.72;5090550;28;19919;-60
2021/09/14 01:10:17;;;;;;;;;;;;;;;17.45;100.00;99038.41;5069182;28;19923;-60
2021/09/14 01:12:42;;;;;;;;;;;;;;;17.46;100.00;99037.47;5110947;28;19920;-61
2021/09/14 01:15:08;;;;;;;;;;;;;;;17.40;100.00;99031.78;5084349;28;19915;-62
2021/09/14 01:17:33;;;;;;;;;;;;;;;17.42;100.00;99028.16;5083927;28;20002;-60
2021/09/14 01:19:58;;;;;;;;;;;;;;;17.37;100.00;99035.41;5102680;28;20380;-61
2021/09/14 01:22:27;;;;;;;;;;;;;;;17.23;100.00;99035.41;5101295;28;19942;-61
2021/09/14 01:24:53;;;;;;;;;;;;;;;17.39;100.00;99038.78;5103965;28;20447;-61
2021/09/14 01:27:18;;;;;;;;;;;;;;;17.34;100.00;99038.22;5085689;28;19912;-61
2021/09/14 01:32:28;;;;;;;;;;;;;;;17.43;100.00;99036.84;5101922;28;19926;-63
2021/09/14 01:34:53;;;;;;;;;;;;;;;17.24;100.00;99029.25;5099360;28;19920;-60
2021/09/14 01:37:18;;;;;;;;;;;;;;;17.12;100.00;99031.66;5105326;28;19924;-60
2021/09/14 01:39:44;;;;;;;;;;;;;;;17.44;100.00;99030.69;5099362;28;19915;-60
2021/09/14 01:42:09;;;;;;;;;;;;;;;17.41;100.00;99034.31;5100769;28;19912;-59
2021/09/14 01:44:35;;;;;;;;;;;;;;;17.20;100.00;99027.78;5099694;28;19967;-62
2021/09/14 01:47:00;;;;;;;;;;;;;;;17.16;100.00;99029.72;5100892;28;19920;-62
2021/09/14 01:49:25;;;;;;;;;;;;;;;17.02;100.00;99025.31;5100216;28;19939;-59
2021/09/14 01:51:51;;;;;;;;;;;;;;;17.01;100.00;99028.84;5083162;28;19916;-58
2021/09/14 01:54:16;;;;;;;;;;;;;;;17.44;100.00;99028.91;5081737;28;19919;-59
2021/09/14 01:56:41;;;;;;;;;;;;;;;17.27;100.00;99029.91;5101068;28;20025;-60
2021/09/14 01:59:07;;;;;;;;;;;;;;;17.33;100.00;99026.97;5100346;28;19927;-60
2021/09/14 02:01:39;;;;;;;;;;;;;;;17.50;100.00;99025.94;5100681;28;19927;-60
2021/09/14 02:38:19;;;;;;;;;;;;;;;17.33;100.00;99018.28;5099827;28;19922;-59
2021/09/14 02:40:13;;;;;;;;;;;;;;;17.43;100.00;99003.00;5100143;28;19919;-62
2021/09/14 02:58:39;;;;;;;;;;;;;;;17.14;100.00;99003.78;5098663;28;19931;-61
2021/09/14 03:01:09;;;;;;;;;;;;;;;17.03;100.00;99003.56;5100836;28;20491;-63
2021/09/14 03:03:34;;;;;;;;;;;;;;;17.11;100.00;99003.97;5100481;28;20467;-60
2021/09/14 03:06:00;;;;;;;;;;;;;;;16.77;100.00;99004.22;5098369;28;20012;-63
2021/09/14 03:08:25;;;;;;;;;;;;;;;16.95;100.00;99003.19;5099526;28;19919;-60
2021/09/14 03:10:51;;;;;;;;;;;;;;;17.06;100.00;99002.53;5080826;28;20274;-62
2021/09/14 03:13:16;;;;;;;;;;;;;;;17.53;100.00;99004.91;5080887;28;20370;-60
2021/09/14 03:15:41;;;;;;;;;;;;;;;17.51;100.00;99001.56;5104094;28;19919;-60
2021/09/14 03:18:07;;;;;;;;;;;;;;;17.64;100.00;99006.06;5100221;28;19963;-59
2021/09/14 03:20:32;;;;;;;;;;;;;;;17.20;100.00;99002.59;5103319;28;20549;-60
2021/09/14 03:22:57;;;;;;;;;;;;;;;16.40;100.00;99006.28;5104262;28;19916;-61
2021/09/14 03:25:23;;;;;;;;;;;;;;;17.03;100.00;99000.97;5107748;28;19923;-60
2021/09/14 03:27:48;;;;;;;;;;;;;;;17.58;100.00;98993.41;5102083;28;20370;-61
2021/09/14 03:30:13;;;;;;;;;;;;;;;17.62;100.00;98992.28;5098277;28;19924;-59
2021/09/14 03:32:39;;;;;;;;;;;;;;;17.56;100.00;98999.56;5098153;28;20278;-61
2021/09/14 03:35:05;;;;;;;;;;;;;;;17.66;100.00;98996.38;5097386;28;19977;-61
2021/09/14 03:37:30;;;;;;;;;;;;;;;17.31;100.00;98986.31;5085252;28;20572;-60
2021/09/14 03:39:55;;;;;;;;;;;;;;;17.17;100.00;98987.13;5098604;28;19916;-61
2021/09/14 03:42:21;;;;;;;;;;;;;;;16.88;100.00;98981.06;5095758;28;19920;-60
2021/09/14 03:44:46;;;;;;;;;;;;;;;17.00;100.00;98985.53;5097652;28;20915;-62
2021/09/14 03:47:12;;;;;;;;;;;;;;;17.08;100.00;98988.53;5099096;28;19979;-61
2021/09/14 03:49:37;;;;;;;;;;;;;;;16.96;100.00;98984.03;5099114;28;19959;-61
2021/09/14 03:52:02;;;;;;;;;;;;;;;16.90;100.00;98981.78;5103060;28;19916;-61
2021/09/14 03:54:28;;;;;;;;;;;;;;;16.96;100.00;98984.03;5099425;28;19912;-62
2021/09/14 03:56:53;;;;;;;;;;;;;;;17.00;100.00;98985.53;5103310;28;20265;-61
2021/09/14 03:59:19;;;;;;;;;;;;;;;17.12;100.00;98969.19;5103352;28;19969;-60
2021/09/14 04:01:50;;;;;;;;;;;;;;;16.81;100.00;98977.13;5101634;28;19915;-62
2021/09/14 04:09:32;;;;;;;;;;;;;;;17.52;100.00;98982.44;5099870;28;20403;-61
2021/09/14 04:11:57;;;;;;;;;;;;;;;17.46;100.00;98974.16;5100934;28;19916;-62
2021/09/14 04:14:25;;;;;;;;;;;;;;;17.42;100.00;98970.88;5099738;28;19946;-60
2021/09/14 04:16:51;;;;;;;;;;;;;;;17.34;100.00;98975.75;5097331;28;19916;-63
2021/09/14 04:19:16;;;;;;;;;;;;;;;17.08;100.00;98969.47;5101715;28;19920;-60
2021/09/14 04:21:41;;;;;;;;;;;;;;;16.99;100.00;98983.88;5104230;28;19923;-60
2021/09/14 04:24:07;;;;;;;;;;;;;;;15.56;100.00;98991.72;5085191;28;19916;-62
2021/09/14 04:26:32;;;;;;;;;;;;;;;15.35;100.00;98998.03;5098479;28;20006;-59
2021/09/14 04:28:57;;;;;;;;;;;;;;;16.19;100.00;98993.56;5098765;28;19923;-61
2021/09/14 04:31:23;;;;;;;;;;;;;;;16.31;100.00;99002.47;5102164;28;19927;-63
2021/09/14 04:33:48;;;;;;;;;;;;;;;16.00;100.00;98993.72;5103196;28;20029;-61
2021/09/14 04:36:13;;;;;;;;;;;;;;;16.77;100.00;98991.22;5104792;28;19965;-62
2021/09/14 04:38:41;;;;;;;;;;;;;;;16.85;100.00;98989.84;5103757;28;19912;-60
2021/09/14 04:41:07;;;;;;;;;;;;;;;16.59;100.00;98986.13;5104631;28;20338;-61
2021/09/14 04:43:32;;;;;;;;;;;;;;;16.30;100.00;98992.97;5085763;28;19968;-63
2021/09/14 04:45:58;;;;;;;;;;;;;;;16.14;100.00;98995.56;5102214;28;20841;-60
2021/09/14 04:48:23;;;;;;;;;;;;;;;16.83;100.00;98981.34;5092507;28;19915;-61
2021/09/14 04:50:48;;;;;;;;;;;;;;;16.24;100.00;98981.16;5090145;28;20411;-61
2021/09/14 04:53:13;;;;;;;;;;;;;;;16.91;100.00;98983.47;5087033;28;19916;-61
2021/09/14 04:55:39;;;;;;;;;;;;;;;17.17;100.00;98979.34;5105144;28;19922;-62
2021/09/14 04:58:04;;;;;;;;;;;;;;;17.16;100.00;98969.03;5102596;28;20377;-62
2021/09/14 05:00:29;;;;;;;;;;;;;;;17.17;100.00;98970.69;5079878;28;19915;-60
2021/09/14 05:02:55;;;;;;;;;;;;;;;17.21;100.00;98964.38;5101132;28;19982;-61
2021/09/14 05:05:20;;;;;;;;;;;;;;;17.21;100.00;98959.19;5097621;28;19923;-62
2021/09/14 05:07:46;;;;;;;;;;;;;;;17.25;100.00;98952.88;5101315;28;20387;-62
2021/09/14 05:10:11;;;;;;;;;;;;;;;16.98;100.00;98956.16;5099310;28;19922;-61
2021/09/14 05:12:36;;;;;;;;;;;;;;;16.91;100.00;98949.66;5099122;28;19951;-60
2021/09/14 05:15:02;;;;;;;;;;;;;;;16.96;100.00;98946.78;5096865;28;19952;-60
2021/09/14 05:17:27;;;;;;;;;;;;;;;16.65;100.00;98946.78;5102581;28;19958;-61
2021/09/14 05:19:53;;;;;;;;;;;;;;;16.41;100.00;98951.63;5101054;28;20365;-62
2021/09/14 05:22:28;;;;;;;;;;;;;;;16.60;100.00;98946.19;5099189;28;19916;-62
2021/09/14 05:24:53;;;;;;;;;;;;;;;17.07;100.00;98945.22;5096610;28;20345;-60
2021/09/14 05:27:19;;;;;;;;;;;;;;;17.23;100.00;98947.75;5097810;28;20817;-61
2021/09/14 05:29:44;;;;;;;;;;;;;;;17.01;100.00;98940.38;5100352;28;19911;-61
2021/09/14 05:32:10;;;;;;;;;;;;;;;16.40;100.00;98938.69;5104066;28;20487;-59
2021/09/14 05:34:35;;;;;;;;;;;;;;;16.71;100.00;98938.63;5101095;28;19963;-62
2021/09/14 05:37:01;;;;;;;;;;;;;;;16.37;100.00;98933.69;5088230;28;19966;-62
2021/09/14 05:39:26;;;;;;;;;;;;;;;16.70;100.00;98931.75;5098923;28;20479;-63
2021/09/14 05:41:51;;;;;;;;;;;;;;;16.53;100.00;98929.28;5101132;28;19922;-63
2021/09/14 05:44:17;;;;;;;;;;;;;;;16.23;100.00;98931.88;5100889;28;19916;-62
2021/09/14 05:46:42;;;;;;;;;;;;;;;16.99;100.00;98921.44;5101553;28;20345;-62
2021/09/14 05:49:07;;;;;;;;;;;;;;;17.22;100.00;98911.38;5099890;28;19912;-62
2021/09/14 05:51:32;;;;;;;;;;;;;;;16.33;100.00;98916.59;5102685;28;19913;-62
2021/09/14 05:53:58;;;;;;;;;;;;;;;16.45;100.00;98910.72;5081995;28;20557;-61
2021/09/14 05:56:28;;;;;;;;;;;;;;;16.33;100.00;98912.25;5099426;28;19916;-63
2021/09/14 05:58:53;;;;;;;;;;;;;;;16.34;100.00;98913.09;5100864;28;19955;-62
2021/09/14 06:01:19;;;;;;;;;;;;;;;16.40;100.00;98912.72;5099923;28;19951;-63
2021/09/14 06:03:44;;;;;;;;;;;;;;;16.60;100.00;98907.19;5099326;28;19919;-60
2021/09/14 06:06:09;;;;;;;;;;;;;;;16.95;100.00;98906.94;5100646;28;19930;-60
2021/09/14 06:08:35;;;;;;;;;;;;;;;17.18;100.00;98909.94;5099516;28;20377;-62
2021/09/14 06:11:00;;;;;;;;;;;;;;;16.72;100.00;98908.28;5083154;28;19922;-62
2021/09/14 06:13:25;;;;;;;;;;;;;;;16.27;100.00;98900.44;5098240;28;20412;-62
2021/09/14 06:15:50;;;;;;;;;;;;;;;16.58;100.00;98911.69;5099776;28;19959;-62
2021/09/14 06:18:16;;;;;;;;;;;;;;;17.01;100.00;98914.34;5097803;28;20369;-63
2021/09/14 06:20:41;;;;;;;;;;;;;;;17.48;100.00;98913.25;5100502;28;19969;-63
2021/09/14 06:23:06;;;;;;;;;;;;;;;17.63;100.00;98913.22;5102603;28;19934;-62
2021/09/14 06:25:32;;;;;;;;;;;;;;;17.91;100.00;98904.56;5103565;28;20396;-62
2021/09/14 06:27:57;;;;;;;;;;;;;;;17.85;100.00;98921.38;5098428;28;19916;-60
2021/09/14 06:30:22;;;;;;;;;;;;;;;17.48;100.00;98920.22;5106906;28;20401;-61
2021/09/14 06:32:48;;;;;;;;;;;;;;;17.59;100.00;98923.00;5103341;28;19916;-63
2021/09/14 06:35:13;;;;;;;;;;;;;;;17.57;100.00;98932.66;5099594;28;20296;-61
2021/09/14 06:37:38;;;;;;;;;;;;;;;18.07;100.00;98920.88;5098161;28;19964;-62
2021/09/14 06:40:04;;;;;;;;;;;;;;;18.14;100.00;98931.75;5105902;28;20369;-62
2021/09/14 06:42:30;;;;;;;;;;;;;;;18.30;100.00;98932.41;5088227;28;19912;-59
2021/09/14 06:44:58;;;;;;;;;;;;;;;19.08;100.00;98929.00;5100957;28;19992;-63
2021/09/14 06:47:24;;;;;;;;;;;;;;;19.04;100.00;98927.53;5099462;28;19923;-62
2021/09/14 06:49:49;;;;;;;;;;;;;;;18.51;100.00;98934.56;5103979;28;19912;-64
2021/09/14 06:52:14;;;;;;;;;;;;;;;17.48;100.00;98941.06;5099835;28;19912;-59
2021/09/14 06:54:39;;;;;;;;;;;;;;;17.84;100.00;98939.75;5099267;28;19912;-60
2021/09/14 06:57:05;;;;;;;;;;;;;;;17.95;100.00;98943.34;5083441;28;20384;-61
2021/09/14 06:59:30;;;;;;;;;;;;;;;17.63;100.00;98954.88;5102291;28;19985;-62
2021/09/14 07:01:56;;;;;;;;;;;;;;;17.67;100.00;98956.38;5083667;28;20284;-62
2021/09/14 07:04:21;;;;;;;;;;;;;;;17.42;100.00;98955.25;5086143;28;19911;-61
2021/09/14 07:06:50;;;;;;;;;;;;;;;17.35;100.00;98956.56;5102672;28;19931;-64
2021/09/14 07:09:15;;;;;;;;;;;;;;;18.03;100.00;98955.88;5103746;28;20635;-61
2021/09/14 07:11:40;;;;;;;;;;;;;;;17.78;100.00;98957.38;5103332;28;20007;-62
2021/09/14 07:14:06;;;;;;;;;;;;;;;18.08;100.00;98948.59;5100276;28;19919;-62
2021/09/14 07:16:31;;;;;;;;;;;;;;;18.94;100.00;98952.59;5099743;28;19954;-61
2021/09/14 07:18:56;;;;;;;;;;;;;;;19.35;100.00;98951.56;5100184;28;19976;-60
2021/09/14 07:21:22;;;;;;;;;;;;;;;20.00;100.00;98948.75;5103136;28;20276;-63
2021/09/14 07:23:47;;;;;;;;;;;;;;;20.56;100.00;98942.97;5096964;28;19915;-62
2021/09/14 07:26:12;;;;;;;;;;;;;;;21.70;100.00;98942.16;5094351;28;19919;-62
2021/09/14 07:28:38;;;;;;;;;;;;;;;21.70;100.00;98937.75;5099496;28;19920;-62
2021/09/14 07:31:03;;;;;;;;;;;;;;;21.80;100.00;98937.84;5098627;28;20562;-62
2021/09/14 07:33:29;;;;;;;;;;;;;;;20.59;100.00;98945.34;5095467;28;20293;-62
2021/09/14 07:35:54;;;;;;;;;;;;;;;19.68;100.00;98943.13;5095242;28;21226;-60
2021/09/14 07:38:19;;;;;;;;;;;;;;;19.75;100.00;98943.56;5085949;28;19912;-60
2021/09/14 07:40:45;;;;;;;;;;;;;;;19.43;100.00;98936.19;5101310;28;19920;-61
2021/09/14 07:43:10;;;;;;;;;;;;;;;19.47;100.00;98950.72;5100811;28;19923;-61
2021/09/14 07:45:35;;;;;;;;;;;;;;;19.93;100.00;98939.66;5099751;28;20335;-62
2021/09/14 07:48:01;;;;;;;;;;;;;;;21.09;100.00;98937.25;5098558;28;19915;-62
2021/09/14 07:50:26;;;;;;;;;;;;;;;20.89;100.00;98934.38;5098685;28;19926;-62
2021/09/14 07:52:51;;;;;;;;;;;;;;;19.87;100.00;98940.09;5080834;28;20511;-61
2021/09/14 07:55:17;;;;;;;;;;;;;;;19.88;100.00;98939.16;5099034;28;19977;-63
2021/09/14 07:57:42;;;;;;;;;;;;;;;20.89;100.00;98942.22;5099584;28;19923;-61
2021/09/14 08:00:08;;;;;;;;;;;;;;;20.72;100.00;98942.66;5099339;28;19951;-62
2021/09/14 08:02:33;;;;;;;;;;;;;;;21.00;100.00;98935.31;5100952;28;20392;-61
2021/09/14 08:04:58;;;;;;;;;;;;;;;20.84;100.00;98944.34;5101367;28;19927;-62
2021/09/14 08:07:23;;;;;;;;;;;;;;;20.52;100.00;98944.09;5100166;28;20014;-62
2021/09/14 08:09:49;;;;;;;;;;;;;;;20.84;100.00;98954.81;5079864;28;19923;-63
2021/09/14 08:12:14;;;;;;;;;;;;;;;21.44;100.00;98952.06;5099239;28;19922;-63
2021/09/14 08:14:40;;;;;;;;;;;;;;;22.20;100.00;98952.19;5080811;28;20006;-62
2021/09/14 08:17:05;;;;;;;;;;;;;;;21.70;100.00;98950.84;5099361;28;19969;-61
2021/09/14 08:19:30;;;;;;;;;;;;;;;21.93;100.00;98948.19;5102349;28;19911;-62
2021/09/14 08:21:58;;;;;;;;;;;;;;;22.16;100.00;98950.75;5103842;28;19911;-62
2021/09/14 08:24:23;;;;;;;;;;;;;;;22.52;100.00;98950.41;5101692;28;19918;-62
2021/09/14 08:26:49;;;;;;;;;;;;;;;23.38;100.00;98950.28;5100152;28;20336;-61
2021/09/14 08:29:14;;;;;;;;;;;;;;;24.04;100.00;98948.97;5099863;28;20562;-61
2021/09/14 08:31:39;;;;;;;;;;;;;;;24.20;100.00;98959.81;5099703;28;20053;-61
2021/09/14 08:34:05;;;;;;;;;;;;;;;24.56;100.00;98946.94;5098822;28;20377;-62
2021/09/14 08:36:30;;;;;;;;;;;;;;;24.25;100.00;98951.50;5098718;28;19924;-61
2021/09/14 08:38:55;;;;;;;;;;;;;;;23.27;100.00;98945.94;5104098;28;19912;-62
2021/09/14 08:41:21;;;;;;;;;;;;;;;22.78;100.00;98944.78;5086807;28;20284;-62
2021/09/14 08:43:47;;;;;;;;;;;;;;;23.47;100.00;98935.50;5109394;28;19919;-62
2021/09/14 08:46:13;;;;;;;;;;;;;;;24.32;100.00;98944.72;5107229;28;19954;-62
2021/09/14 08:48:38;;;;;;;;;;;;;;;23.63;100.00;98941.13;5108609;28;19955;-62
2021/09/14 08:51:04;;;;;;;;;;;;;;;23.89;100.00;98935.38;5106639;28;19916;-62
2021/09/14 08:53:31;;;;;;;;;;;;;;;22.54;100.00;98935.38;5104691;28;19919;-62
2021/09/14 08:55:57;;;;;;;;;;;;;;;22.49;100.00;98939.34;5105998;28;20419;-62
2021/09/14 08:58:22;;;;;;;;;;;;;;;22.51;100.00;98933.03;5108475;28;19923;-62
2021/09/14 09:00:47;;;;;;;;;;;;;;;22.89;100.00;98936.03;5107992;28;20399;-62
2021/09/14 09:03:19;;;;;;;;;;;;;;;22.57;100.00;98930.84;5106189;28;19920;-62
2021/09/14 09:05:45;;;;;;;;;;;;;;;23.18;100.00;98930.97;5097964;28;19927;-61
2021/09/14 09:08:18;;;;;;;;;;;;;;;24.42;100.00;98920.03;5079077;28;19915;-61
2021/09/14 09:10:44;;;;;;;;;;;;;;;24.69;100.00;98922.97;5095788;28;19918;-65
2021/09/14 09:13:09;;;;;;;;;;;;;;;24.83;100.00;98920.72;5074449;28;19920;-65
2021/09/14 09:15:35;;;;;;;;;;;;;;;24.58;100.00;98914.25;5094295;28;20566;-64
2021/09/14 09:18:00;;;;;;;;;;;;;;;24.55;100.00;98917.16;5109235;28;19916;-62
2021/09/14 09:20:26;;;;;;;;;;;;;;;26.51;100.00;98923.19;5101677;28;19915;-62
2021/09/14 09:23:03;;;;;;;;;;;;;;;25.57;100.00;98926.19;5081550;28;19911;-63
2021/09/14 09:25:28;;;;;;;;;;;;;;;25.70;100.00;98918.75;5101616;28;20006;-63
2021/09/14 09:28:23;;;;;;;;;;;;;;;26.41;100.00;98907.44;5102059;28;20032;-63
2021/09/14 09:30:55;;;;;;;;;;;;;;;25.39;100.00;98911.13;5085780;28;19994;-63
2021/09/14 09:33:25;;;;;;;;;;;;;;;25.27;100.00;98912.28;5090039;28;20002;-64
2021/09/14 09:35:50;;;;;;;;;;;;;;;25.43;100.00;98917.78;5101437;28;20357;-63
2021/09/14 09:38:15;;;;;;;;;;;;;;;24.17;100.00;98907.44;5101252;28;19996;-62
2021/09/14 09:40:43;;;;;;;;;;;;;;;24.13;100.00;98911.31;5100163;28;19915;-64
2021/09/14 09:43:09;;;;;;;;;;;;;;;25.49;100.00;98905.81;5103265;28;19913;-61
2021/09/14 09:45:44;;;;;;;;;;;;;;;26.22;100.00;98897.84;5100737;28;19922;-62
2021/09/14 09:48:10;;;;;;;;;;;;;;;26.61;88.47;98902.00;5088382;28;19911;-62
2021/09/14 09:50:36;;;;;;;;;;;;;;;26.46;100.00;98902.53;5104400;28;19922;-62
2021/09/14 09:53:02;;;;;;;;;;;;;;;24.56;100.00;98903.03;5100437;28;20002;-63
2021/09/14 09:55:28;;;;;;;;;;;;;;;24.81;100.00;98906.88;5085041;28;20317;-62
2021/09/14 09:57:54;;;;;;;;;;;;;;;26.49;100.00;98904.84;5108867;28;19964;-62
2021/09/14 10:00:19;;;;;;;;;;;;;;;25.52;95.57;98913.44;5089776;28;20354;-62
2021/09/14 10:02:46;;;;;;;;;;;;;;;27.59;99.59;98912.28;5103019;28;20373;-62
2021/09/14 10:05:11;;;;;;;;;;;;;;;26.09;92.64;98910.59;5086855;28;19981;-62
2021/09/14 10:07:37;;;;;;;;;;;;;;;27.73;93.85;98911.66;5082941;28;19916;-63
2021/09/14 10:10:03;;;;;;;;;;;;;;;28.16;84.38;98894.72;5084234;28;19959;-63
2021/09/14 10:12:32;;;;;;;;;;;;;;;28.32;86.93;98899.22;5080552;28;19913;-63
2021/09/14 10:15:05;;;;;;;;;;;;;;;27.60;91.13;98900.72;5070808;28;20315;-62
2021/09/14 10:17:31;;;;;;;;;;;;;;;25.81;89.25;98905.34;5082283;28;19959;-62
2021/09/14 10:20:07;;;;;;;;;;;;;;;27.54;89.07;98905.66;5086513;28;19916;-63
2021/09/14 10:22:32;;;;;;;;;;;;;;;28.99;90.01;98896.34;5087130;28;19919;-62
2021/09/14 10:25:01;;;;;;;;;;;;;;;27.93;84.62;98894.53;5085742;28;19916;-62
2021/09/14 10:27:34;;;;;;;;;;;;;;;26.16;94.84;98902.91;5086138;28;20507;-62
2021/09/14 10:29:59;;;;;;;;;;;;;;;28.50;95.66;98890.31;5083458;28;19951;-62
2021/09/14 10:32:24;;;;;;;;;;;;;;;26.68;91.44;98895.94;5086504;28;19955;-62
2021/09/14 10:34:54;;;;;;;;;;;;;;;26.14;97.21;98897.81;5085245;28;20011;-62
2021/09/14 10:37:19;;;;;;;;;;;;;;;27.07;94.94;98892.88;5086455;28;19920;-63
2021/09/14 10:39:45;;;;;;;;;;;;;;;27.84;100.00;98884.13;5085293;28;20422;-62
2021/09/14 10:42:14;;;;;;;;;;;;;;;28.93;80.88;98880.31;5084008;28;19912;-62
2021/09/14 10:44:39;;;;;;;;;;;;;;;26.64;93.16;98885.81;5079028;28;20014;-62
2021/09/14 10:47:07;;;;;;;;;;;;;;;28.67;83.13;98876.06;5086152;28;20424;-62
2021/09/14 10:49:53;;;;;;;;;;;;;;;29.13;88.08;98875.47;5080555;28;19916;-62
2021/09/14 10:52:39;;;;;;;;;;;;;;;27.27;98.40;98876.81;5082440;28;19911;-62
2021/09/14 10:55:08;;;;;;;;;;;;;;;29.05;96.76;98873.63;5082951;28;20002;-62
2021/09/14 10:57:34;;;;;;;;;;;;;;;25.33;100.00;98879.25;5082980;28;19966;-62
2021/09/14 10:59:59;;;;;;;;;;;;;;;27.01;100.00;98882.09;5086146;28;19920;-62
2021/09/14 11:02:25;;;;;;;;;;;;;;;28.57;88.14;98867.44;5083022;28;19912;-62
2021/09/14 11:04:52;;;;;;;;;;;;;;;30.48;81.77;98864.56;5066966;28;20322;-62
2021/09/14 11:07:20;;;;;;;;;;;;;;;30.32;90.42;98863.69;5065564;28;19924;-62
2021/09/14 11:09:51;;;;;;;;;;;;;;;30.03;78.11;98862.53;5061230;28;20021;-62
2021/09/14 11:12:20;;;;;;;;;;;;;;;28.32;90.28;98859.47;5058902;28;19927;-62
2021/09/14 11:14:49;;;;;;;;;;;;;;;28.06;89.08;98859.66;5061284;28;19959;-62
2021/09/14 11:17:24;;;;;;;;;;;;;;;27.15;100.00;98875.41;5064760;28;19955;-62
2021/09/14 11:19:51;;;;;;;;;;;;;;;28.06;89.35;98861.50;5063332;28;19957;-62
2021/09/14 11:22:37;;;;;;;;;;;;;;;28.04;98.37;98860.81;5061378;28;19923;-61
2021/09/14 11:25:03;;;;;;;;;;;;;;;27.51;88.80;98858.38;5063509;28;19952;-61
2021/09/14 11:27:28;;;;;;;;;;;;;;;28.74;87.51;98861.13;5063783;28;19967;-62
2021/09/14 11:29:54;;;;;;;;;;;;;;;29.24;83.60;98866.28;5042658;28;19916;-62
2021/09/14 11:32:19;;;;;;;;;;;;;;;28.95;80.35;98859.75;5058627;28;19943;-62
2021/09/14 11:34:47;;;;;;;;;;;;;;;30.17;84.36;98868.91;5062417;28;20244;-62
2021/09/14 11:37:12;;;;;;;;;;;;;;;30.55;80.26;98863.63;5058924;28;19931;-61
2021/09/14 11:39:38;;;;;;;;;;;;;;;28.85;76.68;98870.56;5060612;28;19921;-61
2021/09/14 11:42:04;;;;;;;;;;;;;;;29.79;77.37;98865.41;5050636;28;20431;-61
2021/09/14 11:44:29;;;;;;;;;;;;;;;29.69;83.62;98854.16;5062302;28;19947;-61
2021/09/14 11:46:55;;;;;;;;;;;;;;;29.73;75.34;98866.09;5060538;28;19913;-60
2021/09/14 11:49:29;;;;;;;;;;;;;;;31.26;75.96;98861.38;5059180;28;19912;-63
2021/09/14 11:51:59;;;;;;;;;;;;;;;28.76;81.38;98863.59;5058967;28;19916;-64
2021/09/14 11:54:26;;;;;;;;;;;;;;;31.76;80.78;98850.91;5063195;28;19936;-62
2021/09/14 11:56:56;;;;;;;;;;;;;;;29.79;78.70;98852.13;5062436;28;19920;-63
2021/09/14 11:59:21;;;;;;;;;;;;;;;28.32;81.43;98845.41;5061690;28;19913;-62
2021/09/14 12:01:47;;;;;;;;;;;;;;;30.89;77.64;98846.38;5062039;28;19916;-63
2021/09/14 12:04:16;;;;;;;;;;;;;;;29.99;79.09;98841.84;5058709;28;19956;-62
2021/09/14 12:06:41;;;;;;;;;;;;;;;31.42;81.13;98838.25;5098091;28;20400;-63
2021/09/14 12:09:09;;;;;;;;;;;;;;;30.24;71.47;98834.50;5083005;28;21826;-62
2021/09/14 12:11:36;;;;;;;;;;;;;;;31.50;86.81;98832.84;5101797;28;19916;-61
2021/09/14 12:14:06;;;;;;;;;;;;;;;31.41;88.41;98829.47;5101297;28;19920;-61
2021/09/14 12:16:35;;;;;;;;;;;;;;;29.44;77.63;98835.69;5104396;28;19973;-62
2021/09/14 12:19:01;;;;;;;;;;;;;;;31.52;73.51;98836.13;5098392;28;19912;-63
2021/09/14 12:21:26;;;;;;;;;;;;;;;32.89;72.03;98833.19;5097358;28;20033;-61
2021/09/14 12:23:52;;;;;;;;;;;;;;;31.24;63.54;98834.13;5098375;28;20377;-62
2021/09/14 12:26:18;;;;;;;;;;;;;;;32.23;61.72;98827.41;5095030;28;19919;-62
2021/09/14 12:28:44;;;;;;;;;;;;;;;31.92;68.88;98825.88;5091014;28;19924;-61
2021/09/14 12:31:09;;;;;;;;;;;;;;;30.10;73.27;98832.63;5092729;28;19916;-61
2021/09/14 12:33:35;;;;;;;;;;;;;;;29.34;70.92;98829.78;5092995;28;19961;-61
2021/09/14 12:36:00;;;;;;;;;;;;;;;29.88;73.89;98821.00;5094411;28;19951;-61
2021/09/14 12:38:26;;;;;;;;;;;;;;;30.46;80.28;98826.69;5094263;28;20303;-61
2021/09/14 12:40:51;;;;;;;;;;;;;;;29.22;71.78;98825.84;5094033;28;19912;-61
2021/09/14 12:43:16;;;;;;;;;;;;;;;30.77;74.72;98832.69;5095646;28;19920;-61
2021/09/14 12:45:41;;;;;;;;;;;;;;;31.44;69.59;98828.25;5094459;28;20463;-61
2021/09/14 12:48:07;;;;;;;;;;;;;;;30.66;72.68;98827.00;5094439;28;19920;-61
2021/09/14 12:50:33;;;;;;;;;;;;;;;31.50;73.40;98827.50;5095355;28;20445;-61
2021/09/14 12:52:58;;;;;;;;;;;;;;;30.28;73.89;98827.03;5078940;28;20058;-61
2021/09/14 12:55:25;;;;;;;;;;;;;;;29.45;77.62;98829.41;5096360;28;19921;-61
2021/09/14 12:57:50;;;;;;;;;;;;;;;30.75;78.63;98828.56;5084121;28;19920;-61
2021/09/14 13:00:16;;;;;;;;;;;;;;;30.15;71.21;98822.28;5097405;28;19911;-61
2021/09/14 13:02:41;;;;;;;;;;;;;;;33.29;79.36;98824.56;5095082;28;19950;-61
2021/09/14 13:05:07;;;;;;;;;;;;;;;34.42;72.41;98819.41;5096699;28;19970;-61
2021/09/14 13:07:32;;;;;;;;;;;;;;;33.79;61.43;98818.97;5095258;28;19985;-61
2021/09/14 13:09:57;;;;;;;;;;;;;;;32.42;66.84;98818.72;5096644;28;19915;-61
2021/09/14 13:12:29;;;;;;;;;;;;;;;31.82;69.66;98820.06;5095451;28;20002;-62
2021/09/14 13:17:38;;;;;;;;;;;;;;;33.67;66.85;98814.22;5097277;28;19926;-61
2021/09/14 13:20:04;;;;;;;;;;;;;;;33.62;77.26;98816.69;5084669;28;19916;-62
2021/09/14 13:22:29;;;;;;;;;;;;;;;31.99;65.82;98816.13;5085531;28;20743;-61
2021/09/14 13:24:54;;;;;;;;;;;;;;;33.22;60.92;98815.72;5086484;28;20265;-62
2021/09/14 13:27:20;;;;;;;;;;;;;;;33.94;63.25;98809.75;5104297;28;19916;-62
2021/09/14 13:29:45;;;;;;;;;;;;;;;34.71;62.69;98815.47;5102648;28;19966;-63
2021/09/14 13:32:11;;;;;;;;;;;;;;;33.31;65.19;98809.19;5079607;28;19922;-63
2021/09/14 13:34:36;;;;;;;;;;;;;;;32.34;61.32;98802.88;5098115;28;19928;-63